createdAt,value
2019-05-13T00:00:18.186Z,1.20
2019-05-13T00:02:46.969Z,1.40
2019-05-13T00:05:15.766Z,1.43
2019-05-13T00:07:44.607Z,1.30
2019-05-13T00:10:14.794Z,1.13
2019-05-13T00:12:46.404Z,1.40
2019-05-13T00:15:15.539Z,1.40
2019-05-13T00:17:47.006Z,1.40
2019-05-13T00:20:18.455Z,1.37
2019-05-13T00:22:47.330Z,1.43
2019-05-13T00:25:16.121Z,1.50
2019-05-13T00:27:46.891Z,1.60
2019-05-13T00:30:15.739Z,1.87
2019-05-13T00:32:46.514Z,1.60
2019-05-13T00:35:15.311Z,1.70
2019-05-13T00:37:49.891Z,1.63
2019-05-13T00:40:19.638Z,1.80
2019-05-13T00:42:48.427Z,2.00
2019-05-13T00:45:17.278Z,2.10
2019-05-13T00:47:49.089Z,1.80
2019-05-13T00:50:20.463Z,2.30
2019-05-13T00:52:53.480Z,2.37
2019-05-13T00:55:24.712Z,1.70
2019-05-13T00:57:59.328Z,2.30
2019-05-13T01:00:28.102Z,2.53
2019-05-13T01:02:56.927Z,2.63
2019-05-13T01:05:33.722Z,2.77
2019-05-13T01:08:03.897Z,3.00
2019-05-13T01:10:34.576Z,3.10
2019-05-13T01:13:09.774Z,2.83
2019-05-13T01:15:38.563Z,3.67
2019-05-13T01:18:14.287Z,3.17
2019-05-13T01:20:46.079Z,2.93
2019-05-13T01:23:20.694Z,3.07
2019-05-13T01:25:49.502Z,3.40
2019-05-13T01:28:23.780Z,3.03
2019-05-13T01:30:53.784Z,2.90
2019-05-13T01:33:25.625Z,3.20
2019-05-13T01:35:54.431Z,3.20
2019-05-13T01:38:24.113Z,3.43
2019-05-13T01:40:53.898Z,3.37
2019-05-13T01:43:25.094Z,3.93
2019-05-13T01:45:53.889Z,3.60
2019-05-13T01:48:24.092Z,3.80
2019-05-13T01:50:53.435Z,3.37
2019-05-13T01:53:24.368Z,3.43
2019-05-13T01:55:55.542Z,3.70
2019-05-13T01:58:30.170Z,3.40
2019-05-13T02:01:01.602Z,3.57
2019-05-13T02:03:33.829Z,4.00
2019-05-13T02:06:03.789Z,3.63
2019-05-13T02:08:36.047Z,4.00
2019-05-13T02:11:13.162Z,3.90
2019-05-13T02:13:44.764Z,4.27
2019-05-13T02:16:19.618Z,3.93
2019-05-13T02:18:53.536Z,5.00
2019-05-13T02:21:24.317Z,4.23
2019-05-13T02:23:53.657Z,4.20
2019-05-13T02:26:24.058Z,4.17
2019-05-13T02:28:54.126Z,4.97
2019-05-13T02:31:39.518Z,5.00
2019-05-13T02:33:54.449Z,4.90
2019-05-13T02:36:32.666Z,5.20
2019-05-13T02:39:02.381Z,5.07
2019-05-13T02:41:34.121Z,4.97
2019-05-13T02:44:03.933Z,5.50
2019-05-13T02:46:33.756Z,5.40
2019-05-13T02:49:03.350Z,5.37
2019-05-13T02:51:32.945Z,5.13
2019-05-13T02:54:03.582Z,5.30
2019-05-13T02:56:34.953Z,5.73
2019-05-13T02:59:07.014Z,5.50
2019-05-13T03:01:43.226Z,6.00
2019-05-13T03:04:13.154Z,6.07
2019-05-13T03:06:44.847Z,5.50
2019-05-13T03:09:14.603Z,5.40
2019-05-13T03:11:43.428Z,4.97
2019-05-13T03:14:12.910Z,4.77
2019-05-13T03:16:43.571Z,5.30
2019-05-13T03:19:18.155Z,5.23
2019-05-13T03:21:46.931Z,4.77
2019-05-13T03:24:15.772Z,4.53
2019-05-13T03:26:47.194Z,4.97
2019-05-13T03:29:15.960Z,4.83
2019-05-13T03:31:46.787Z,4.33
2019-05-13T03:34:17.864Z,4.20
2019-05-13T03:36:47.340Z,3.73
2019-05-13T03:39:16.836Z,4.10
2019-05-13T03:41:48.635Z,3.60
2019-05-13T03:44:23.763Z,3.40
2019-05-13T03:46:54.509Z,3.50
2019-05-13T03:49:26.328Z,3.40
2019-05-13T03:51:57.803Z,3.03
2019-05-13T03:54:32.805Z,2.77
2019-05-13T03:57:04.078Z,2.63
2019-05-13T03:59:33.830Z,2.67
2019-05-13T04:02:05.262Z,2.40
2019-05-13T04:04:34.043Z,2.60
2019-05-13T04:07:03.188Z,2.10
2019-05-13T04:09:36.552Z,2.80
2019-05-13T04:12:03.625Z,2.63
2019-05-13T04:14:42.188Z,2.80
2019-05-13T04:17:12.519Z,2.47
2019-05-13T04:19:43.618Z,2.00
2019-05-13T04:22:13.124Z,2.53
2019-05-13T04:24:42.856Z,2.63
2019-05-13T04:27:13.246Z,2.60
2019-05-13T04:29:43.258Z,2.40
2019-05-13T04:32:12.900Z,3.27
2019-05-13T04:34:42.580Z,3.10
2019-05-13T04:37:13.427Z,3.20
2019-05-13T04:39:51.028Z,3.27
2019-05-13T04:42:12.951Z,3.30
2019-05-13T04:44:44.569Z,3.37
2019-05-13T04:47:19.109Z,3.40
2019-05-13T04:49:53.733Z,3.20
2019-05-13T04:52:22.708Z,3.40
2019-05-13T04:54:52.812Z,3.77
2019-05-13T04:57:22.681Z,4.00
2019-05-13T04:59:54.884Z,3.73
2019-05-13T05:02:58.722Z,3.33
2019-05-13T05:05:42.013Z,3.57
2019-05-13T05:08:47.950Z,3.33
2019-05-13T05:11:42.660Z,3.60
2019-05-13T05:14:32.347Z,3.57
2019-05-13T05:17:32.608Z,3.40
2019-05-13T05:20:03.898Z,3.67
2019-05-13T05:22:52.501Z,3.10
2019-05-13T05:25:32.009Z,3.30
2019-05-13T05:28:29.139Z,4.07
2019-05-13T05:31:17.105Z,3.43
2019-05-13T05:34:11.586Z,2.70
2019-05-13T05:37:01.617Z,3.23
2019-05-13T05:39:33.018Z,3.40
2019-05-13T05:42:02.330Z,2.70
2019-05-13T05:44:32.609Z,3.70
2019-05-13T05:47:03.319Z,3.13
2019-05-13T05:49:32.313Z,3.33
2019-05-13T05:52:04.335Z,2.87
2019-05-13T05:54:42.056Z,2.87
2019-05-13T05:57:13.671Z,2.50
2019-05-13T05:59:42.855Z,2.10
2019-05-13T06:02:12.298Z,2.20
2019-05-13T06:04:43.076Z,2.57
2019-05-13T06:07:17.562Z,2.10
2019-05-13T06:09:46.407Z,2.10
2019-05-13T06:12:15.617Z,1.93
2019-05-13T06:14:44.719Z,1.70
2019-05-13T06:17:13.555Z,2.33
2019-05-13T06:19:42.434Z,2.03
2019-05-13T06:22:12.315Z,2.70
2019-05-13T06:24:42.183Z,2.33
2019-05-13T06:27:17.004Z,1.90
2019-05-13T06:29:49.045Z,1.40
2019-05-13T06:32:22.437Z,1.93
2019-05-13T06:34:47.109Z,1.80
2019-05-13T06:37:15.960Z,1.80
2019-05-13T06:39:51.262Z,1.93
2019-05-13T06:42:22.223Z,1.50
2019-05-13T06:44:53.783Z,1.90
2019-05-13T06:47:28.550Z,1.43
2019-05-13T06:49:57.433Z,1.50
2019-05-13T06:52:26.351Z,1.30
2019-05-13T06:54:55.220Z,2.53
2019-05-13T06:57:24.015Z,1.80
2019-05-13T06:59:52.841Z,2.10
2019-05-13T07:02:21.776Z,1.70
2019-05-13T07:04:51.616Z,1.30
2019-05-13T07:07:26.482Z,1.80
2019-05-13T07:10:02.566Z,1.60
2019-05-13T07:12:31.654Z,1.47
2019-05-13T07:15:04.793Z,1.43
2019-05-13T07:17:33.575Z,1.50
2019-05-13T07:20:08.548Z,1.57
2019-05-13T07:22:44.758Z,1.30
2019-05-13T07:25:14.015Z,1.50
2019-05-13T07:27:47.058Z,1.70
2019-05-13T07:30:20.814Z,1.67
2019-05-13T07:32:49.242Z,1.50
2019-05-13T07:35:18.047Z,1.20
2019-05-13T07:37:46.934Z,1.50
2019-05-13T07:40:16.039Z,1.67
2019-05-13T07:42:44.803Z,1.60
2019-05-13T07:45:13.670Z,1.30
2019-05-13T07:47:45.061Z,1.70
2019-05-13T07:50:13.849Z,1.33
2019-05-13T07:52:43.171Z,1.53
2019-05-13T07:55:16.080Z,1.33
2019-05-13T07:57:51.482Z,2.37
2019-05-13T08:00:21.878Z,1.80
2019-05-13T08:02:52.354Z,2.00
2019-05-13T08:05:22.363Z,1.60
2019-05-13T08:07:57.213Z,1.83
2019-05-13T08:10:27.042Z,2.10
2019-05-13T08:13:02.345Z,2.03
2019-05-13T08:15:32.386Z,1.83
2019-05-13T08:18:02.049Z,1.87
2019-05-13T08:20:32.772Z,1.60
2019-05-13T08:23:02.629Z,1.93
2019-05-13T08:25:31.685Z,2.13
2019-05-13T08:28:02.070Z,1.90
2019-05-13T08:30:31.845Z,1.70
2019-05-13T08:33:01.772Z,1.37
2019-05-13T08:35:32.783Z,2.03
2019-05-13T08:38:01.615Z,2.30
2019-05-13T08:40:32.404Z,2.17
2019-05-13T08:43:01.437Z,2.00
2019-05-13T08:45:31.486Z,1.90
2019-05-13T08:48:02.064Z,1.70
2019-05-13T08:50:36.990Z,1.60
2019-05-13T08:53:05.754Z,2.23
2019-05-13T08:55:35.476Z,1.90
2019-05-13T08:58:04.363Z,1.73
2019-05-13T09:00:53.410Z,1.70
2019-05-13T09:03:23.603Z,2.77
2019-05-13T09:05:54.989Z,2.10
2019-05-13T09:08:25.119Z,1.83
2019-05-13T09:10:56.737Z,1.60
2019-05-13T09:13:27.006Z,1.80
2019-05-13T09:15:55.781Z,2.20
2019-05-13T09:18:24.629Z,2.03
2019-05-13T09:20:56.031Z,1.83
2019-05-13T09:23:24.820Z,1.63
2019-05-13T09:25:54.666Z,2.23
2019-05-13T09:28:25.451Z,1.97
2019-05-13T09:30:54.242Z,2.40
2019-05-13T09:33:23.122Z,2.07
2019-05-13T09:35:53.540Z,1.87
2019-05-13T09:38:22.440Z,1.97
2019-05-13T09:40:57.173Z,1.67
2019-05-13T09:43:25.962Z,1.90
2019-05-13T09:45:54.794Z,2.20
2019-05-13T09:48:25.659Z,1.50
2019-05-13T09:51:02.379Z,1.60
2019-05-13T09:53:32.524Z,1.67
2019-05-13T09:56:02.390Z,1.67
2019-05-13T09:58:33.122Z,1.60
2019-05-13T10:01:01.936Z,1.90
2019-05-13T10:03:33.097Z,1.57
2019-05-13T10:06:04.668Z,1.77
2019-05-13T10:08:36.739Z,1.80
2019-05-13T10:11:12.320Z,1.50
2019-05-13T10:13:41.340Z,1.67
2019-05-13T10:16:12.453Z,1.80
2019-05-13T10:18:46.360Z,1.80
2019-05-13T10:21:15.151Z,1.73
2019-05-13T10:23:44.019Z,1.60
2019-05-13T10:26:14.396Z,1.83
2019-05-13T10:28:49.603Z,1.90
2019-05-13T10:31:24.274Z,1.70
2019-05-13T10:33:55.694Z,1.60
2019-05-13T10:36:24.489Z,1.50
2019-05-13T10:38:53.340Z,1.40
2019-05-13T10:41:22.374Z,1.43
2019-05-13T10:43:52.135Z,1.63
2019-05-13T10:46:22.083Z,2.13
2019-05-13T10:48:52.634Z,1.67
2019-05-13T10:51:22.292Z,2.03
2019-05-13T10:53:53.606Z,2.27
2019-05-13T10:56:23.889Z,2.30
2019-05-13T10:58:53.448Z,2.10
2019-05-13T11:01:24.511Z,2.97
2019-05-13T11:03:53.312Z,1.97
2019-05-13T11:06:22.179Z,2.30
2019-05-13T11:08:53.161Z,2.00
2019-05-13T11:11:22.943Z,2.00
2019-05-13T11:14:06.712Z,2.20
2019-05-13T11:16:29.162Z,2.20
2019-05-13T11:18:58.011Z,1.87
2019-05-13T11:21:27.915Z,2.33
2019-05-13T11:23:57.679Z,2.17
2019-05-13T11:26:26.476Z,1.90
2019-05-13T11:28:55.295Z,2.37
2019-05-13T11:31:25.038Z,2.33
2019-05-13T11:34:01.857Z,2.07
2019-05-13T11:36:33.442Z,1.90
2019-05-13T11:39:02.936Z,2.00
2019-05-13T11:41:36.807Z,2.20
2019-05-13T11:44:14.189Z,1.93
2019-05-13T11:46:36.083Z,1.63
2019-05-13T11:49:05.868Z,1.93
2019-05-13T11:51:37.742Z,2.10
2019-05-13T11:54:06.722Z,1.80
2019-05-13T11:56:46.320Z,1.93
2019-05-13T11:59:14.011Z,1.33
2019-05-13T12:01:43.796Z,1.80
2019-05-13T12:04:12.596Z,2.30
2019-05-13T12:06:48.655Z,2.07
2019-05-13T12:09:13.041Z,1.90
2019-05-13T12:11:45.290Z,2.07
2019-05-13T12:14:37.331Z,2.00
2019-05-13T12:16:44.547Z,1.57
2019-05-13T12:19:14.339Z,1.70
2019-05-13T12:21:46.465Z,1.80
2019-05-13T12:24:13.591Z,1.73
2019-05-13T12:26:43.426Z,1.93
2019-05-13T12:29:19.014Z,1.87
2019-05-13T12:31:45.078Z,2.13
2019-05-13T12:34:22.129Z,1.87
2019-05-13T12:36:50.415Z,2.00
2019-05-13T12:39:23.768Z,1.93
2019-05-13T12:41:53.857Z,1.80
2019-05-13T12:44:23.078Z,2.37
2019-05-13T12:46:54.225Z,2.57
2019-05-13T12:49:22.837Z,2.13
2019-05-13T12:51:51.867Z,1.70
2019-05-13T12:54:23.364Z,2.37
2019-05-13T12:56:52.472Z,2.10
2019-05-13T12:59:22.366Z,2.53
2019-05-13T13:01:57.665Z,2.70
2019-05-13T13:04:33.481Z,2.70
2019-05-13T13:07:08.443Z,3.20
2019-05-13T13:09:38.265Z,2.83
2019-05-13T13:12:12.955Z,2.63
2019-05-13T13:14:44.418Z,2.37
2019-05-13T13:17:18.026Z,2.63
2019-05-13T13:19:53.452Z,2.77
2019-05-13T13:22:24.584Z,2.53
2019-05-13T13:24:52.980Z,2.60
2019-05-13T13:27:37.829Z,2.70
2019-05-13T13:30:02.430Z,2.40
2019-05-13T13:32:25.339Z,2.60
2019-05-13T13:34:55.106Z,2.30
2019-05-13T13:37:24.358Z,2.53
2019-05-13T13:39:55.162Z,2.33
2019-05-13T13:42:23.635Z,2.70
2019-05-13T13:47:25.558Z,2.40
2019-05-13T13:49:57.430Z,2.73
2019-05-13T13:52:26.219Z,2.63
2019-05-13T13:55:02.984Z,3.07
2019-05-13T13:57:28.582Z,2.30
2019-05-13T14:00:21.033Z,2.57
2019-05-13T14:02:27.953Z,1.90
2019-05-13T14:05:04.875Z,2.33
2019-05-13T14:07:13.241Z,2.07
2019-05-13T14:07:37.937Z,1.83
2019-05-13T14:10:06.772Z,2.00
2019-05-13T14:12:35.664Z,3.20
2019-05-13T14:15:10.380Z,2.53
2019-05-13T14:17:39.166Z,3.13
2019-05-13T14:20:08.662Z,2.60
2019-05-13T14:22:37.499Z,2.00
2019-05-13T14:25:11.358Z,2.47
2019-05-13T14:27:42.034Z,2.40
2019-05-13T14:30:14.277Z,2.53
2019-05-13T14:32:51.694Z,2.63
2019-05-13T14:35:25.169Z,2.87
2019-05-13T14:37:53.981Z,2.57
2019-05-13T14:40:23.770Z,2.37
2019-05-13T14:42:52.798Z,2.10
2019-05-13T14:45:23.854Z,2.20
2019-05-13T14:47:55.350Z,2.00
2019-05-13T14:50:24.138Z,3.27
2019-05-13T14:52:52.990Z,2.27
2019-05-13T14:55:24.464Z,2.67
2019-05-13T14:57:53.298Z,2.90
2019-05-13T15:00:22.759Z,2.63
2019-05-13T15:02:57.259Z,3.47
2019-05-13T15:05:28.691Z,2.63
2019-05-13T15:07:58.454Z,2.90
2019-05-13T15:10:27.244Z,2.23
2019-05-13T15:12:56.380Z,2.40
2019-05-13T15:15:25.158Z,2.60
2019-05-13T15:17:56.588Z,3.43
2019-05-13T15:20:25.432Z,2.47
2019-05-13T15:22:55.170Z,2.07
2019-05-13T15:25:24.001Z,2.40
2019-05-13T15:27:53.939Z,2.87
2019-05-13T15:30:28.542Z,2.63
2019-05-13T15:33:03.368Z,2.37
2019-05-13T15:35:35.214Z,2.50
2019-05-13T15:38:04.000Z,2.33
2019-05-13T15:40:32.847Z,3.40
2019-05-13T15:43:02.426Z,3.40
2019-05-13T15:45:31.978Z,2.60
2019-05-13T15:48:03.487Z,2.83
2019-05-13T15:50:33.251Z,2.10
2019-05-13T15:53:02.877Z,2.90
2019-05-13T15:55:32.007Z,2.87
2019-05-13T15:58:03.814Z,2.57
2019-05-13T16:00:34.583Z,2.57
2019-05-13T16:03:06.069Z,1.93
2019-05-13T16:05:42.321Z,2.57
2019-05-13T16:08:12.146Z,4.20
2019-05-13T16:10:43.833Z,3.00
2019-05-13T16:13:12.626Z,2.10
2019-05-13T16:15:41.746Z,2.67
2019-05-13T16:18:11.672Z,2.30
2019-05-13T16:20:44.468Z,2.10
2019-05-13T16:23:12.426Z,2.43
2019-05-13T16:25:41.808Z,2.20
2019-05-13T16:28:10.771Z,7.97
2019-05-13T16:30:41.909Z,2.23
2019-05-13T16:33:13.061Z,2.10
2019-05-13T16:35:45.038Z,2.50
2019-05-13T16:38:13.835Z,2.37
2019-05-13T16:40:42.610Z,2.10
2019-05-13T16:43:12.882Z,1.93
2019-05-13T16:45:47.575Z,2.07
2019-05-13T16:48:22.128Z,2.00
2019-05-13T16:50:50.911Z,2.57
2019-05-13T16:53:23.339Z,2.37
2019-05-13T16:55:52.162Z,3.67
2019-05-13T16:58:25.116Z,4.57
2019-05-13T17:00:57.701Z,3.10
2019-05-13T17:03:26.595Z,2.60
2019-05-13T17:05:58.523Z,2.40
2019-05-13T17:08:27.371Z,2.37
2019-05-13T17:10:58.162Z,2.43
2019-05-13T17:13:26.943Z,2.07
2019-05-13T17:15:55.774Z,2.83
2019-05-13T17:18:24.631Z,2.43
2019-05-13T17:20:53.471Z,2.80
2019-05-13T17:23:22.267Z,2.50
2019-05-13T17:25:53.650Z,2.53
2019-05-13T17:28:22.448Z,2.27
2019-05-13T17:30:51.938Z,2.97
2019-05-13T17:33:22.971Z,2.73
2019-05-13T17:35:52.281Z,2.80
2019-05-13T17:38:21.826Z,2.30
2019-05-13T17:40:52.975Z,2.27
2019-05-13T17:43:27.120Z,2.00
2019-05-13T17:46:01.791Z,2.70
2019-05-13T17:48:32.983Z,2.73
2019-05-13T17:51:01.490Z,2.67
2019-05-13T17:53:32.517Z,2.60
2019-05-13T17:56:02.403Z,5.13
2019-05-13T17:58:31.514Z,2.90
2019-05-13T18:01:03.693Z,2.27
2019-05-13T18:03:32.513Z,1.97
2019-05-13T18:06:02.317Z,2.23
2019-05-13T18:08:37.329Z,2.33
2019-05-13T18:11:06.183Z,2.47
2019-05-13T18:13:35.947Z,2.30
2019-05-13T18:16:04.742Z,1.90
2019-05-13T18:18:43.068Z,1.90
2019-05-13T18:21:04.058Z,2.57
2019-05-13T18:23:32.857Z,2.23
2019-05-13T18:26:02.116Z,1.73
2019-05-13T18:28:33.704Z,1.80
2019-05-13T18:31:02.491Z,2.37
2019-05-13T18:33:31.898Z,2.27
2019-05-13T18:36:01.975Z,2.17
2019-05-13T18:38:31.360Z,1.93
2019-05-13T18:41:01.725Z,2.03
2019-05-13T18:43:36.785Z,2.27
2019-05-13T18:46:05.702Z,1.87
2019-05-13T18:48:34.487Z,1.87
2019-05-13T18:51:06.304Z,2.50
2019-05-13T18:53:35.145Z,2.10
2019-05-13T18:56:12.268Z,2.03
2019-05-13T18:58:46.322Z,2.60
2019-05-13T19:01:15.236Z,2.43
2019-05-13T19:03:49.775Z,1.53
2019-05-13T19:06:22.368Z,1.87
2019-05-13T19:08:53.017Z,1.90
2019-05-13T19:11:22.243Z,1.50
2019-05-13T19:13:52.145Z,1.77
2019-05-13T19:16:23.800Z,1.90
2019-05-13T19:18:52.586Z,1.70
2019-05-13T19:21:22.431Z,1.40
2019-05-13T19:23:53.842Z,2.00
2019-05-13T19:26:22.630Z,2.87
2019-05-13T19:28:51.732Z,2.13
2019-05-13T19:31:23.370Z,1.80
2019-05-13T19:33:52.187Z,2.57
2019-05-13T19:36:21.147Z,1.10
2019-05-13T19:38:55.818Z,1.57
2019-05-13T19:41:24.966Z,1.57
2019-05-13T19:43:53.886Z,5.80
2019-05-13T19:46:25.614Z,2.37
2019-05-13T19:48:53.343Z,1.97
2019-05-13T19:51:32.097Z,1.50
2019-05-13T19:54:01.320Z,1.50
2019-05-13T19:56:31.890Z,1.30
2019-05-13T19:59:03.965Z,2.00
2019-05-13T20:01:36.122Z,1.40
2019-05-13T20:04:11.159Z,1.93
2019-05-13T20:06:43.120Z,1.77
2019-05-13T20:09:14.572Z,2.13
2019-05-13T20:11:55.046Z,2.27
2019-05-13T20:14:22.204Z,1.80
2019-05-13T20:16:52.433Z,2.10
2019-05-13T20:19:27.231Z,2.00
2019-05-13T20:21:56.990Z,2.10
2019-05-13T20:24:25.777Z,2.00
2019-05-13T20:26:54.834Z,2.40
2019-05-13T20:29:23.590Z,1.87
2019-05-13T20:31:58.442Z,2.20
2019-05-13T20:34:28.202Z,2.20
2019-05-13T20:37:03.085Z,1.97
2019-05-13T20:39:32.139Z,1.70
2019-05-13T20:42:01.785Z,2.37
2019-05-13T20:44:31.453Z,1.90
2019-05-13T20:47:01.632Z,2.20
2019-05-13T20:49:31.296Z,2.00
2019-05-13T20:52:00.529Z,2.33
2019-05-13T20:54:31.583Z,2.40
2019-05-13T20:57:03.536Z,2.00
2019-05-13T20:59:35.427Z,2.27
2019-05-13T21:02:04.281Z,2.13
2019-05-13T21:04:34.292Z,2.67
2019-05-13T21:07:04.219Z,2.30
2019-05-13T21:09:36.175Z,2.10
2019-05-13T21:12:12.095Z,1.83
2019-05-13T21:14:43.781Z,2.47
2019-05-13T21:17:18.610Z,1.97
2019-05-13T21:19:52.678Z,2.50
2019-05-13T21:22:21.244Z,2.40
2019-05-13T21:24:56.246Z,2.67
2019-05-13T21:27:27.586Z,1.90
2019-05-13T21:29:56.477Z,2.20
2019-05-13T21:32:28.441Z,2.40
2019-05-13T21:35:06.135Z,2.27
2019-05-13T21:37:40.760Z,2.07
2019-05-13T21:40:13.897Z,2.60
2019-05-13T21:42:42.842Z,2.40
2019-05-13T21:45:14.190Z,2.60
2019-05-13T21:47:44.108Z,2.50
2019-05-13T21:50:31.122Z,2.87
2019-05-13T21:52:51.461Z,2.77
2019-05-13T21:55:21.676Z,2.83
2019-05-13T21:57:53.049Z,2.80
2019-05-13T22:00:25.864Z,3.43
2019-05-13T22:02:56.903Z,2.77
2019-05-13T22:05:31.631Z,3.17
2019-05-13T22:08:01.766Z,3.10
2019-05-13T22:10:31.140Z,2.77
2019-05-13T22:13:02.762Z,3.23
2019-05-13T22:15:32.265Z,3.17
2019-05-13T22:18:07.123Z,3.00
2019-05-13T22:20:50.025Z,2.97
2019-05-13T22:23:12.398Z,2.80
2019-05-13T22:25:47.171Z,2.90
2019-05-13T22:28:18.567Z,2.90
2019-05-13T22:30:48.331Z,2.40
2019-05-13T22:33:17.277Z,3.17
2019-05-13T22:35:47.090Z,2.93
2019-05-13T22:38:21.715Z,2.87
2019-05-13T22:40:56.340Z,2.97
2019-05-13T22:43:25.338Z,2.63
2019-05-13T22:45:56.885Z,2.97
2019-05-13T22:48:31.874Z,2.70
2019-05-13T22:51:03.679Z,2.93
2019-05-13T22:53:32.670Z,2.53
2019-05-13T22:56:07.295Z,2.60
2019-05-13T22:58:41.921Z,2.70
2019-05-13T23:01:13.371Z,2.80
2019-05-13T23:03:46.359Z,2.50
2019-05-13T23:06:21.616Z,2.67
2019-05-13T23:08:50.999Z,2.23
2019-05-13T23:11:25.607Z,2.50
2019-05-13T23:14:06.517Z,3.03
2019-05-13T23:16:25.045Z,2.70
2019-05-13T23:18:54.864Z,2.40
2019-05-13T23:21:31.291Z,2.60
2019-05-13T23:24:07.386Z,2.13
2019-05-13T23:26:42.473Z,2.80
2019-05-13T23:29:14.074Z,2.30
2019-05-13T23:31:45.501Z,2.83
2019-05-13T23:34:17.177Z,1.93
2019-05-13T23:36:48.629Z,2.37
2019-05-13T23:39:23.362Z,2.13
2019-05-13T23:41:57.980Z,2.30
2019-05-13T23:44:32.708Z,2.43
2019-05-13T23:47:04.157Z,2.20
2019-05-13T23:49:35.585Z,1.97
2019-05-13T23:52:05.636Z,2.30
2019-05-13T23:54:42.328Z,2.13
2019-05-13T23:57:14.059Z,2.00
2019-05-13T23:59:46.329Z,2.30
